Time;durP1;ratioP1;P1;durP2;ratioP2;P2;SDS_P1;SDS_P2;PMS_P1;PMS_P2;Temp;Humidity;BMP_temperature;BMP_pressure;BME280_temperature;BME280_humidity;BME280_pressure;Samples;Min_cycle;Max_cycle;Signal;HPM_P1;HPM_P2
2022/01/14 00:01:52;;;;;;;131.40;23.67;;;;;;;3.87;100.00;99911.59;5066875;28;20654;-77
2022/01/14 00:04:19;;;;;;;106.43;20.53;;;;;;;3.86;100.00;99909.13;5068022;28;20595;-77
2022/01/14 00:06:47;;;;;;;148.33;25.63;;;;;;;3.83;100.00;99910.31;5067349;28;20598;-77
2022/01/14 00:09:15;;;;;;;132.77;25.93;;;;;;;3.82;100.00;99903.38;5067585;28;20598;-77
2022/01/14 00:11:46;;;;;;;103.57;22.93;;;;;;;3.56;100.00;99908.09;5067777;28;20609;-77
2022/01/14 00:14:23;;;;;;;114.70;22.50;;;;;;;2.75;100.00;99909.97;5061608;28;20610;-76
2022/01/14 00:16:50;;;;;;;100.43;22.77;;;;;;;2.33;100.00;99917.97;5070376;28;21106;-76
2022/01/14 00:19:17;;;;;;;110.83;22.30;;;;;;;2.16;100.00;99912.69;5071555;28;20595;-76
2022/01/14 00:21:45;;;;;;;100.20;21.03;;;;;;;1.86;100.00;99915.03;5068374;28;20654;-77
2022/01/14 00:24:24;;;;;;;96.17;24.33;;;;;;;1.79;100.00;99906.97;5069592;28;20593;-76
2022/01/14 00:32:29;;;;;;;132.40;23.17;;;;;;;2.12;100.00;99916.63;5066081;28;20590;-76
2022/01/14 00:34:56;;;;;;;122.93;21.40;;;;;;;2.63;100.00;99914.75;5071622;28;20624;-76
2022/01/14 00:37:23;;;;;;;78.43;19.27;;;;;;;2.65;100.00;99918.06;5066960;28;20616;-76
2022/01/14 00:39:51;;;;;;;77.90;20.07;;;;;;;2.87;100.00;99921.84;5067124;28;20611;-76
2022/01/14 00:42:19;;;;;;;83.63;19.60;;;;;;;2.97;100.00;99907.50;5067029;28;20646;-76
2022/01/14 00:44:46;;;;;;;124.47;21.27;;;;;;;2.86;100.00;99920.19;5068070;28;20625;-77
2022/01/14 00:47:12;;;;;;;91.37;21.13;;;;;;;2.65;100.00;99928.59;5066949;28;20595;-76
2022/01/14 00:49:39;;;;;;;114.00;21.37;;;;;;;2.39;100.00;99919.97;5075747;28;20599;-76
2022/01/14 00:52:07;;;;;;;107.17;21.10;;;;;;;1.54;100.00;99915.72;5067971;28;20630;-75
2022/01/14 00:54:33;;;;;;;121.67;21.70;;;;;;;1.37;100.00;99924.47;5068122;28;20611;-75
2022/01/14 00:57:14;;;;;;;132.60;23.30;;;;;;;1.57;100.00;99920.66;5066268;28;20650;-74
2022/01/14 00:59:40;;;;;;;102.37;20.03;;;;;;;1.71;100.00;99922.72;5065221;28;20648;-75
2022/01/14 01:02:08;;;;;;;101.27;19.00;;;;;;;2.02;100.00;99926.47;5065180;28;21160;-75
2022/01/14 01:04:39;;;;;;;77.77;20.17;;;;;;;2.13;100.00;99913.00;5065021;28;20606;-75
2022/01/14 01:07:07;;;;;;;107.90;22.47;;;;;;;1.60;100.00;99915.09;5066646;28;21067;-75
2022/01/14 01:09:37;;;;;;;107.93;20.63;;;;;;;1.56;100.00;99914.56;5064885;28;20688;-76
2022/01/14 01:12:11;;;;;;;109.30;23.03;;;;;;;2.13;100.00;99915.66;5066020;28;20668;-75
2022/01/14 01:14:45;;;;;;;104.27;21.23;;;;;;;2.46;100.00;99920.97;5065882;28;20622;-75
2022/01/14 01:17:12;;;;;;;132.40;23.97;;;;;;;2.66;100.00;99914.44;5056635;28;20725;-76
2022/01/14 01:19:38;;;;;;;102.73;23.70;;;;;;;2.60;100.00;99917.72;5065618;28;21196;-75
2022/01/14 01:22:06;;;;;;;87.17;20.67;;;;;;;2.89;100.00;99904.88;5065107;28;20645;-75
2022/01/14 01:24:33;;;;;;;127.13;23.33;;;;;;;3.03;100.00;99909.47;5060341;28;20674;-75
2022/01/14 01:27:04;;;;;;;89.90;18.90;;;;;;;3.18;100.00;99899.91;5065304;28;20598;-76
2022/01/14 01:29:48;;;;;;;91.97;20.73;;;;;;;3.16;100.00;99901.88;5064804;28;20611;-75
2022/01/14 01:32:15;;;;;;;132.47;23.30;;;;;;;2.94;100.00;99897.25;5057198;28;20607;-75
2022/01/14 01:34:42;;;;;;;97.00;20.70;;;;;;;2.96;100.00;99900.59;5064574;28;20618;-76
2022/01/14 01:37:09;;;;;;;104.50;17.90;;;;;;;3.08;100.00;99896.63;5065732;28;20614;-76
2022/01/14 01:39:36;;;;;;;116.93;22.90;;;;;;;3.12;100.00;99895.28;5064538;28;20606;-76
2022/01/14 01:42:06;;;;;;;119.60;21.37;;;;;;;3.17;100.00;99890.31;5064152;28;20685;-76
2022/01/14 01:44:36;;;;;;;88.80;18.90;;;;;;;3.24;100.00;99886.03;5064337;28;20678;-76
2022/01/14 01:47:04;;;;;;;107.50;20.40;;;;;;;3.29;100.00;99885.50;5065548;28;20606;-75
2022/01/14 01:49:33;;;;;;;93.67;19.80;;;;;;;3.13;100.00;99891.66;5064177;28;20599;-75
2022/01/14 01:52:01;;;;;;;93.80;19.33;;;;;;;3.17;100.00;99882.41;5065403;28;20598;-75
2022/01/14 01:54:29;;;;;;;110.63;19.83;;;;;;;3.12;100.00;99879.47;5060076;28;20796;-75
2022/01/14 01:56:57;;;;;;;89.47;18.70;;;;;;;3.13;100.00;99874.97;5065378;28;20610;-75
2022/01/14 01:59:26;;;;;;;94.60;20.80;;;;;;;3.16;100.00;99858.81;5066457;28;20686;-75
2022/01/14 02:01:57;;;;;;;102.40;20.50;;;;;;;3.20;100.00;99860.94;5066998;28;20673;-76
2022/01/14 02:04:24;;;;;;;100.77;20.90;;;;;;;2.83;100.00;99863.31;5065381;28;21253;-76
2022/01/14 02:06:53;;;;;;;117.63;20.07;;;;;;;2.89;100.00;99852.09;5066436;28;20927;-76
2022/01/14 02:09:20;;;;;;;108.10;21.30;;;;;;;2.98;100.00;99851.09;5081622;28;20606;-75
2022/01/14 02:11:47;;;;;;;125.60;21.33;;;;;;;2.83;100.00;99855.38;5064844;28;20633;-75
2022/01/14 02:14:27;;;;;;;97.57;19.10;;;;;;;2.85;100.00;99850.75;5064642;28;20698;-74
2022/01/14 02:17:16;;;;;;;95.73;19.47;;;;;;;2.66;100.00;99851.13;5063832;28;20613;-75
2022/01/14 02:22:10;;;;;;;106.00;19.27;;;;;;;2.83;100.00;99857.19;5065968;28;20609;-75
2022/01/14 02:22:47;;;;;;;83.47;15.37;;;;;;;2.95;100.00;99845.31;5061904;28;20784;-75
2022/01/14 02:25:15;;;;;;;54.60;13.90;;;;;;;2.90;100.00;99843.19;5064911;28;20597;-76
2022/01/14 02:27:42;;;;;;;120.37;17.97;;;;;;;2.87;100.00;99840.88;5063627;28;20630;-75
2022/01/14 02:30:10;;;;;;;113.17;19.03;;;;;;;2.78;100.00;99826.06;5063399;28;20586;-75
2022/01/14 02:32:39;;;;;;;91.60;18.90;;;;;;;2.73;100.00;99833.63;5064769;28;20884;-75
2022/01/14 02:35:09;;;;;;;117.67;21.83;;;;;;;2.86;100.00;99825.19;5063346;28;20685;-76
2022/01/14 02:37:36;;;;;;;106.70;18.50;;;;;;;2.91;100.00;99820.25;5064853;28;20614;-76
2022/01/14 02:40:05;;;;;;;102.37;19.13;;;;;;;2.67;100.00;99805.25;5063687;28;20632;-76
2022/01/14 02:42:32;;;;;;;88.30;19.20;;;;;;;2.82;100.00;99803.59;5064089;28;20653;-76
2022/01/14 02:45:03;;;;;;;105.73;18.33;;;;;;;2.84;100.00;99816.63;5063568;28;20598;-75
2022/01/14 02:47:30;;;;;;;96.37;18.93;;;;;;;2.83;100.00;99801.78;5063534;28;20626;-75
2022/01/14 02:49:57;;;;;;;97.97;18.00;;;;;;;2.59;100.00;99813.19;5063550;28;20622;-76
2022/01/14 02:52:42;;;;;;;69.50;16.57;;;;;;;2.75;100.00;99813.19;5063386;28;21079;-76
2022/01/14 02:55:18;;;;;;;141.03;21.13;;;;;;;2.77;100.00;99815.66;5065114;28;20612;-76
2022/01/14 02:57:47;;;;;;;92.47;16.47;;;;;;;2.80;100.00;99817.94;5068184;28;20713;-75
2022/01/14 03:00:15;;;;;;;101.83;19.33;;;;;;;2.80;100.00;99810.88;5066523;28;20598;-75
2022/01/14 03:02:45;;;;;;;102.40;18.67;;;;;;;2.90;100.00;99806.25;5066576;28;20662;-75
2022/01/14 03:05:12;;;;;;;106.43;18.47;;;;;;;2.86;100.00;99802.28;5059014;28;21162;-76
2022/01/14 03:07:42;;;;;;;85.37;18.73;;;;;;;2.70;100.00;99799.66;5066908;28;20646;-76
2022/01/14 03:10:12;;;;;;;92.47;16.93;;;;;;;2.58;100.00;99790.44;5067905;28;20637;-76
2022/01/14 03:12:40;;;;;;;83.37;17.50;;;;;;;2.62;100.00;99789.13;5067884;28;20606;-76
2022/01/14 03:15:07;;;;;;;86.57;17.77;;;;;;;2.71;100.00;99782.84;5067511;28;20594;-76
2022/01/14 03:17:34;;;;;;;68.70;15.83;;;;;;;2.79;100.00;99782.00;5068357;28;20641;-76
2022/01/14 03:20:02;;;;;;;105.20;18.20;;;;;;;2.77;100.00;99781.34;5066990;28;20602;-76
2022/01/14 03:22:32;;;;;;;129.93;20.77;;;;;;;2.80;100.00;99768.66;5064548;28;20639;-75
2022/01/14 03:27:41;;;;;;;134.87;20.40;;;;;;;2.56;100.00;99771.31;5048486;28;20617;-76
2022/01/14 03:30:09;;;;;;;100.20;17.90;;;;;;;2.59;100.00;99760.44;5067414;28;20720;-76
2022/01/14 03:32:36;;;;;;;124.10;21.67;;;;;;;2.58;100.00;99761.44;5065909;28;21037;-76
2022/01/14 03:35:03;;;;;;;84.03;19.60;;;;;;;2.18;100.00;99757.81;5066180;28;20598;-76
2022/01/14 03:37:29;;;;;;;95.83;17.13;;;;;;;2.07;100.00;99747.59;5066017;28;20598;-75
2022/01/14 03:39:56;;;;;;;136.53;19.90;;;;;;;2.18;100.00;99754.34;5074479;28;20583;-75
2022/01/14 03:42:24;;;;;;;122.63;18.73;;;;;;;2.31;100.00;99759.13;5066162;28;20649;-76
2022/01/14 03:44:51;;;;;;;126.53;19.90;;;;;;;2.51;100.00;99752.53;5067227;28;20614;-76
2022/01/14 03:47:18;;;;;;;97.43;19.43;;;;;;;2.63;100.00;99741.47;5067111;28;20614;-76
2022/01/14 03:49:45;;;;;;;83.87;18.53;;;;;;;2.82;100.00;99744.72;5066007;28;20636;-75
2022/01/14 03:52:11;;;;;;;100.17;20.60;;;;;;;2.85;100.00;99744.41;5055759;28;21267;-76
2022/01/14 03:54:38;;;;;;;100.97;21.47;;;;;;;2.70;100.00;99744.25;5068806;28;20603;-76
2022/01/14 03:57:05;;;;;;;105.60;21.07;;;;;;;2.21;100.00;99734.75;5066706;28;20629;-76
2022/01/14 03:59:33;;;;;;;94.23;20.27;;;;;;;2.32;100.00;99739.72;5066943;28;20637;-75
2022/01/14 04:02:00;;;;;;;107.80;19.53;;;;;;;2.05;100.00;99749.56;5066942;28;20638;-76
2022/01/14 04:04:27;;;;;;;106.07;19.57;;;;;;;2.31;100.00;99746.78;5065872;28;20611;-75
2022/01/14 04:06:53;;;;;;;87.43;17.37;;;;;;;2.34;100.00;99745.63;5066284;28;20614;-76
2022/01/14 04:09:20;;;;;;;97.70;20.67;;;;;;;2.11;100.00;99740.19;5067021;28;20609;-76
2022/01/14 04:11:47;;;;;;;137.37;22.23;;;;;;;1.62;100.00;99744.56;5067202;28;20609;-76
2022/01/14 04:16:59;;;;;;;93.93;16.83;;;;;;;0.66;100.00;99739.72;5067094;28;20606;-75
2022/01/14 04:19:27;;;;;;;111.97;18.03;;;;;;;1.02;100.00;99730.72;5065729;28;20602;-75
2022/01/14 04:21:54;;;;;;;115.87;19.60;;;;;;;1.69;100.00;99728.94;5066519;28;20680;-75
2022/01/14 04:24:21;;;;;;;111.57;19.70;;;;;;;1.97;100.00;99736.41;5066815;28;20640;-75
2022/01/14 04:26:48;;;;;;;132.60;21.47;;;;;;;2.18;100.00;99726.19;5065248;28;20698;-76
2022/01/14 04:29:15;;;;;;;108.77;18.00;;;;;;;1.91;100.00;99737.06;5066792;28;20598;-76
2022/01/14 04:31:43;;;;;;;134.57;18.90;;;;;;;1.72;100.00;99739.97;5065531;28;20599;-76
2022/01/14 04:34:11;;;;;;;115.33;20.53;;;;;;;0.92;100.00;99736.09;5066615;28;20599;-76
2022/01/14 04:36:37;;;;;;;74.30;17.27;;;;;;;0.79;100.00;99737.50;5067264;28;20676;-76
2022/01/14 04:39:05;;;;;;;55.77;16.30;;;;;;;0.73;100.00;99748.63;5068751;28;20644;-76
2022/01/14 04:41:31;;;;;;;92.23;17.00;;;;;;;0.27;100.00;99744.56;5068017;28;20615;-76
2022/01/14 04:43:58;;;;;;;89.17;18.93;;;;;;;0.13;100.00;99742.44;5068541;28;21379;-76
2022/01/14 04:47:00;;;;;;;100.87;20.97;;;;;;;0.00;100.00;99748.13;5068484;28;20613;-76
2022/01/14 04:49:28;;;;;;;104.47;18.90;;;;;;;0.65;100.00;99738.88;5060645;28;20702;-76
2022/01/14 04:51:56;;;;;;;74.43;18.23;;;;;;;0.81;100.00;99738.16;5065229;28;20657;-76
2022/01/14 04:54:23;;;;;;;72.73;15.70;;;;;;;0.79;100.00;99740.13;5068023;28;20622;-76
2022/01/14 04:56:51;;;;;;;112.83;18.37;;;;;;;1.06;100.00;99740.75;5065206;28;20690;-76
2022/01/14 04:59:18;;;;;;;87.43;16.80;;;;;;;0.84;100.00;99738.66;5065030;28;20614;-76
2022/01/14 05:01:44;;;;;;;115.33;21.80;;;;;;;0.69;100.00;99734.97;5065219;28;20606;-76
2022/01/14 05:04:11;;;;;;;104.00;18.13;;;;;;;1.27;100.00;99739.53;5073765;28;20610;-77
2022/01/14 05:06:40;;;;;;;64.30;15.67;;;;;;;1.52;100.00;99733.34;5065071;28;20638;-75
2022/01/14 05:09:17;;;;;;;127.93;20.40;;;;;;;1.77;100.00;99740.31;5066263;28;20621;-77
2022/01/14 05:11:52;;;;;;;99.50;20.60;;;;;;;1.53;100.00;99729.72;5065116;28;20685;-76
2022/01/14 05:14:19;;;;;;;119.37;20.07;;;;;;;1.95;100.00;99735.72;5057566;28;20614;-76
2022/01/14 05:16:45;;;;;;;125.13;19.37;;;;;;;2.29;100.00;99732.13;5066012;28;20637;-76
2022/01/14 05:19:12;;;;;;;134.20;21.63;;;;;;;2.34;100.00;99735.06;5064494;28;20590;-76
2022/01/14 05:21:40;;;;;;;105.67;18.73;;;;;;;2.48;100.00;99726.47;5064642;28;20617;-76
2022/01/14 05:24:07;;;;;;;126.00;21.20;;;;;;;2.56;100.00;99724.69;5066843;28;20645;-76
2022/01/14 05:26:34;;;;;;;95.77;16.87;;;;;;;2.47;100.00;99724.84;5065762;28;20705;-77
2022/01/14 05:29:00;;;;;;;78.93;17.37;;;;;;;2.46;100.00;99728.47;5065560;28;21191;-76
2022/01/14 05:31:47;;;;;;;110.60;20.10;;;;;;;2.46;100.00;99733.75;5064302;28;21380;-76
2022/01/14 05:34:15;;;;;;;108.87;17.50;;;;;;;2.53;100.00;99725.00;5057913;28;20648;-76
2022/01/14 05:36:44;;;;;;;78.53;16.90;;;;;;;2.60;100.00;99725.97;5065542;28;21020;-76
2022/01/14 05:39:11;;;;;;;110.37;20.70;;;;;;;2.33;100.00;99723.72;5055776;28;20679;-76
2022/01/14 05:41:38;;;;;;;77.40;17.90;;;;;;;1.82;100.00;99726.66;5065626;28;20668;-76
2022/01/14 05:44:06;;;;;;;86.23;17.83;;;;;;;1.83;100.00;99739.66;5066248;28;20676;-76
2022/01/14 05:46:33;;;;;;;87.63;18.40;;;;;;;1.71;100.00;99743.59;5066550;28;20606;-76
2022/01/14 05:49:00;;;;;;;78.57;16.43;;;;;;;1.80;100.00;99745.25;5065259;28;20610;-75
2022/01/14 05:51:27;;;;;;;72.63;15.23;;;;;;;2.11;100.00;99740.19;5066188;28;20637;-75
2022/01/14 05:53:55;;;;;;;83.00;18.13;;;;;;;2.32;100.00;99742.34;5060834;28;20600;-77
2022/01/14 05:56:22;;;;;;;81.53;18.30;;;;;;;2.48;100.00;99737.03;5066249;28;20725;-76
2022/01/14 05:58:49;;;;;;;78.23;16.83;;;;;;;2.53;100.00;99738.19;5065878;28;20599;-76
2022/01/14 06:01:16;;;;;;;83.63;18.50;;;;;;;2.61;100.00;99742.63;5065733;28;20602;-76
2022/01/14 06:03:42;;;;;;;72.13;18.30;;;;;;;2.47;100.00;99733.59;5065675;28;20660;-76
2022/01/14 06:06:09;;;;;;;74.23;15.00;;;;;;;2.16;100.00;99741.34;5065442;28;21038;-76
2022/01/14 06:08:36;;;;;;;89.33;18.07;;;;;;;2.17;100.00;99727.16;5064404;28;20606;-76
2022/01/14 06:11:04;;;;;;;64.13;18.03;;;;;;;2.51;100.00;99729.63;5064664;28;20613;-75
2022/01/14 06:13:31;;;;;;;97.63;18.50;;;;;;;2.65;100.00;99728.13;5064263;28;20611;-76
2022/01/14 06:15:58;;;;;;;90.10;19.20;;;;;;;2.52;100.00;99730.44;5063566;28;20638;-76
2022/01/14 06:18:25;;;;;;;96.07;17.97;;;;;;;2.29;100.00;99718.94;5063643;28;20622;-76
2022/01/14 06:20:52;;;;;;;80.70;17.53;;;;;;;2.58;100.00;99727.13;5064837;28;20963;-76
2022/01/14 06:23:19;;;;;;;107.73;18.83;;;;;;;2.48;100.00;99718.56;5065724;28;20633;-76
2022/01/14 06:25:45;;;;;;;102.40;18.63;;;;;;;2.49;100.00;99712.31;5064734;28;20606;-76
2022/01/14 06:28:14;;;;;;;101.30;19.67;;;;;;;2.66;100.00;99711.31;5064859;28;20636;-76
2022/01/14 06:30:40;;;;;;;87.17;17.90;;;;;;;2.62;100.00;99704.72;5066831;28;20617;-75
2022/01/14 06:33:07;;;;;;;104.80;20.77;;;;;;;2.67;100.00;99699.75;5068053;28;20615;-76
2022/01/14 06:35:34;;;;;;;106.10;18.83;;;;;;;2.46;100.00;99704.75;5067910;28;20591;-76
2022/01/14 06:38:02;;;;;;;115.67;21.10;;;;;;;2.48;100.00;99700.94;5067896;28;20610;-76
2022/01/14 06:40:30;;;;;;;82.30;20.07;;;;;;;2.42;100.00;99706.06;5068835;28;20851;-76
2022/01/14 06:42:57;;;;;;;91.43;18.33;;;;;;;1.73;100.00;99699.50;5069510;28;20669;-76
2022/01/14 06:45:25;;;;;;;79.73;19.03;;;;;;;1.82;100.00;99706.41;5068550;28;20673;-75
2022/01/14 06:47:52;;;;;;;74.63;14.80;;;;;;;1.89;100.00;99703.97;5069173;28;20606;-76
2022/01/14 06:50:19;;;;;;;117.27;19.70;;;;;;;2.24;100.00;99705.41;5070985;28;20609;-76
2022/01/14 06:52:46;;;;;;;70.60;18.10;;;;;;;2.35;100.00;99703.28;5071879;28;20947;-76
2022/01/14 06:55:13;;;;;;;116.43;20.20;;;;;;;2.38;100.00;99704.75;5069342;28;20697;-77
2022/01/14 06:57:40;;;;;;;87.03;18.57;;;;;;;2.26;100.00;99698.97;5070540;28;20605;-76
2022/01/14 07:00:10;;;;;;;98.00;17.30;;;;;;;2.44;100.00;99701.47;5069153;28;20657;-76
2022/01/14 07:09:22;;;;;;;108.03;19.87;;;;;;;2.64;100.00;99700.91;5062397;28;20586;-75
2022/01/14 07:11:55;;;;;;;98.80;19.93;;;;;;;2.51;100.00;99697.13;5068268;28;20617;-76
2022/01/14 07:14:22;;;;;;;121.70;21.30;;;;;;;2.15;100.00;99689.63;5068687;28;20672;-76
2022/01/14 07:16:49;;;;;;;92.37;18.67;;;;;;;2.15;100.00;99704.59;5069006;28;20609;-76
2022/01/14 07:19:17;;;;;;;105.50;19.80;;;;;;;1.63;100.00;99706.72;5068292;28;20594;-76
2022/01/14 07:21:44;;;;;;;68.57;11.57;;;;;;;1.16;100.00;99711.69;5068597;28;20587;-76
2022/01/14 07:24:13;;;;;;;96.10;18.20;;;;;;;1.13;100.00;99713.81;5067337;28;20687;-76
2022/01/14 07:26:42;;;;;;;119.87;18.13;;;;;;;1.49;100.00;99709.97;5066705;28;20682;-76
2022/01/14 07:29:09;;;;;;;85.10;16.60;;;;;;;1.82;100.00;99706.41;5068063;28;20658;-76
2022/01/14 07:31:36;;;;;;;81.93;16.00;;;;;;;1.56;100.00;99719.72;5068142;28;20617;-76
2022/01/14 07:34:03;;;;;;;65.67;13.87;;;;;;;1.73;100.00;99712.66;5066679;28;20591;-76
2022/01/14 07:36:29;;;;;;;75.00;14.60;;;;;;;1.34;100.00;99724.75;5067882;28;20633;-76
2022/01/14 07:38:56;;;;;;;82.10;14.97;;;;;;;0.75;100.00;99715.94;5068029;28;20614;-76
2022/01/14 07:41:23;;;;;;;90.27;15.83;;;;;;;1.36;100.00;99725.41;5067615;28;20606;-76
2022/01/14 07:43:51;;;;;;;70.33;14.60;;;;;;;1.72;100.00;99712.81;5066179;28;20658;-76
2022/01/14 07:46:18;;;;;;;78.10;17.90;;;;;;;1.84;100.00;99720.25;5066612;28;20633;-76
2022/01/14 07:48:44;;;;;;;69.10;14.80;;;;;;;2.10;100.00;99722.75;5066437;28;20628;-76
2022/01/14 07:51:11;;;;;;;64.00;12.07;;;;;;;2.06;100.00;99719.59;5058025;28;20601;-76
2022/01/14 07:53:40;;;;;;;81.13;13.83;;;;;;;2.23;100.00;99720.41;5062038;28;20606;-76
2022/01/14 07:56:08;;;;;;;55.90;12.10;;;;;;;2.26;100.00;99711.38;5066390;28;20625;-75
2022/01/14 07:58:35;;;;;;;82.27;15.33;;;;;;;2.33;100.00;99704.41;5067682;28;20633;-76
2022/01/14 08:01:04;;;;;;;88.50;16.07;;;;;;;2.43;100.00;99703.25;5067546;28;20598;-76
2022/01/14 08:03:31;;;;;;;50.83;10.90;;;;;;;2.48;100.00;99694.84;5067281;28;20654;-77
2022/01/14 08:05:58;;;;;;;89.07;14.67;;;;;;;2.53;100.00;99697.81;5065967;28;20594;-76
2022/01/14 08:08:25;;;;;;;79.67;15.20;;;;;;;2.30;100.00;99699.47;5067387;28;21261;-76
2022/01/14 08:10:52;;;;;;;61.13;13.53;;;;;;;2.40;100.00;99703.59;5066404;28;20691;-76
2022/01/14 08:13:19;;;;;;;73.17;15.90;;;;;;;2.45;100.00;99700.44;5067359;28;20633;-76
2022/01/14 08:15:46;;;;;;;90.17;14.10;;;;;;;2.61;100.00;99700.41;5066292;28;20602;-76
2022/01/14 08:18:14;;;;;;;49.07;12.70;;;;;;;2.21;100.00;99697.84;5067412;28;20590;-76
2022/01/14 08:20:41;;;;;;;77.07;14.27;;;;;;;1.33;100.00;99715.22;5067560;28;20614;-76
2022/01/14 08:23:08;;;;;;;78.90;13.90;;;;;;;0.63;100.00;99713.72;5067664;28;20760;-76
2022/01/14 08:25:35;;;;;;;71.33;15.37;;;;;;;0.47;100.00;99710.03;5066642;28;20617;-76
2022/01/14 08:28:01;;;;;;;60.87;14.17;;;;;;;0.17;100.00;99701.78;5066991;28;21136;-76
2022/01/14 08:30:28;;;;;;;61.77;16.80;;;;;;;0.24;100.00;99713.31;5067525;28;20663;-76
2022/01/14 08:32:55;;;;;;;70.97;15.00;;;;;;;0.15;100.00;99704.56;5066252;28;20705;-76
2022/01/14 08:35:23;;;;;;;70.83;11.87;;;;;;;0.57;100.00;99712.56;5067754;28;20617;-76
2022/01/14 08:37:50;;;;;;;122.63;17.80;;;;;;;1.11;100.00;99710.53;5066835;28;20640;-76
2022/01/14 08:40:16;;;;;;;78.70;15.87;;;;;;;0.95;100.00;99709.47;5068104;28;20614;-76
2022/01/14 08:42:47;;;;;;;100.43;17.40;;;;;;;0.83;100.00;99705.47;5066143;28;20640;-76
2022/01/14 08:45:18;;;;;;;108.30;15.43;;;;;;;1.17;100.00;99704.63;5057634;28;20661;-75
2022/01/14 08:47:45;;;;;;;70.90;13.77;;;;;;;1.61;100.00;99703.41;5065559;28;20609;-76
2022/01/14 08:50:11;;;;;;;74.63;15.17;;;;;;;1.91;100.00;99700.16;5056994;28;20598;-75
2022/01/14 08:52:39;;;;;;;75.23;17.10;;;;;;;2.05;100.00;99699.50;5065244;28;20617;-76
2022/01/14 08:55:07;;;;;;;96.63;17.00;;;;;;;2.27;100.00;99700.63;5066136;28;21021;-75
2022/01/14 08:57:33;;;;;;;67.77;14.43;;;;;;;2.36;100.00;99698.81;5065708;28;20606;-75
2022/01/14 09:00:00;;;;;;;44.57;12.30;;;;;;;1.97;100.00;99701.31;5066568;28;20602;-76
2022/01/14 09:02:27;;;;;;;71.43;15.20;;;;;;;2.21;100.00;99692.56;5066507;28;20614;-75
2022/01/14 09:04:54;;;;;;;78.73;14.43;;;;;;;1.54;100.00;99690.09;5066302;28;20653;-76
2022/01/14 09:07:21;;;;;;;78.50;17.00;;;;;;;1.56;100.00;99689.91;5065192;28;20718;-75
2022/01/14 09:09:49;;;;;;;62.17;14.57;;;;;;;1.67;100.00;99694.06;5065286;28;20595;-75
2022/01/14 09:12:16;;;;;;;61.77;14.43;;;;;;;1.90;100.00;99695.88;5065511;28;20618;-76
2022/01/14 09:14:42;;;;;;;71.40;16.27;;;;;;;1.88;100.00;99697.88;5065060;28;20641;-75
2022/01/14 09:17:09;;;;;;;81.43;16.37;;;;;;;2.20;100.00;99697.00;5065228;28;20599;-75
2022/01/14 09:19:36;;;;;;;84.90;15.03;;;;;;;2.30;100.00;99702.94;5065130;28;20611;-75
2022/01/14 09:22:03;;;;;;;72.43;15.47;;;;;;;2.10;100.00;99699.81;5064097;28;20690;-76
2022/01/14 09:24:30;;;;;;;86.07;15.77;;;;;;;2.14;100.00;99689.78;5065527;28;20676;-77
2022/01/14 09:26:58;;;;;;;59.40;14.37;;;;;;;2.16;100.00;99696.56;5064569;28;20604;-77
2022/01/14 09:29:24;;;;;;;99.87;15.93;;;;;;;1.93;100.00;99700.00;5064382;28;20595;-76
2022/01/14 09:31:51;;;;;;;125.83;18.17;;;;;;;1.26;100.00;99701.88;5063644;28;20649;-75
2022/01/14 09:34:18;;;;;;;81.13;17.13;;;;;;;1.06;100.00;99705.72;5064422;28;20618;-76
2022/01/14 09:36:45;;;;;;;63.83;14.63;;;;;;;1.17;100.00;99702.00;5064889;28;20615;-76
2022/01/14 09:39:12;;;;;;;79.93;17.03;;;;;;;1.74;100.00;99706.41;5056364;28;20617;-76
2022/01/14 09:41:39;;;;;;;85.50;16.40;;;;;;;2.08;100.00;99708.88;5064630;28;20614;-76
2022/01/14 09:44:07;;;;;;;43.17;13.77;;;;;;;2.44;100.00;99712.84;5064674;28;20692;-75
2022/01/14 09:46:34;;;;;;;79.33;16.37;;;;;;;2.38;100.00;99702.13;5065032;28;20591;-76
2022/01/14 09:49:02;;;;;;;65.00;15.53;;;;;;;1.48;100.00;99711.81;5065307;28;20656;-76
2022/01/14 09:51:28;;;;;;;102.27;16.27;;;;;;;0.61;100.00;99716.53;5065281;28;20618;-75
2022/01/14 09:53:55;;;;;;;109.97;19.87;;;;;;;0.57;100.00;99707.28;5060809;28;20625;-75
2022/01/14 09:56:24;;;;;;;82.80;16.97;;;;;;;0.93;100.00;99706.16;5064206;28;20641;-76
2022/01/14 09:58:51;;;;;;;107.20;20.00;;;;;;;0.70;100.00;99710.34;5063563;28;20614;-75
2022/01/14 10:01:22;;;;;;;84.60;20.00;;;;;;;0.52;100.00;99702.53;5063975;28;20694;-76
2022/01/14 10:03:54;;;;;;;79.37;18.17;;;;;;;0.56;100.00;99703.00;5064180;28;20638;-76
2022/01/14 10:06:39;;;;;;;88.37;17.30;;;;;;;1.46;100.00;99705.03;5068270;28;20644;-75
2022/01/14 10:09:09;;;;;;;99.67;18.13;;;;;;;2.00;100.00;99696.56;5067951;28;20640;-77
2022/01/14 10:11:38;;;;;;;132.90;19.53;;;;;;;2.30;100.00;99697.69;5068522;28;20610;-76
2022/01/14 10:14:06;;;;;;;105.13;19.40;;;;;;;2.35;100.00;99699.81;5069771;28;20624;-76
2022/01/14 10:16:35;;;;;;;100.77;15.27;;;;;;;2.14;100.00;99697.69;5069686;28;20594;-76
2022/01/14 10:19:03;;;;;;;101.50;16.40;;;;;;;0.98;100.00;99688.13;5069203;28;20674;-73
2022/01/14 10:21:33;;;;;;;87.13;17.57;;;;;;;0.79;100.00;99688.34;5068710;28;20587;-74
2022/01/14 10:24:00;;;;;;;78.63;14.60;;;;;;;1.30;100.00;99678.69;5070348;28;20642;-75
2022/01/14 10:26:30;;;;;;;66.53;16.53;;;;;;;1.38;100.00;99673.44;5069122;28;20602;-75
2022/01/14 10:29:01;;;;;;;133.10;18.23;;;;;;;1.02;100.00;99676.28;5068108;28;20618;-73
2022/01/14 10:31:33;;;;;;;58.47;16.27;;;;;;;1.21;100.00;99672.56;5069588;28;20586;-76
2022/01/14 10:34:15;;;;;;;54.50;15.13;;;;;;;1.99;100.00;99662.44;5067749;28;20621;-77
2022/01/14 10:36:44;;;;;;;66.80;16.37;;;;;;;1.95;100.00;99663.78;5067539;28;20609;-76
2022/01/14 10:39:22;;;;;;;85.10;16.37;;;;;;;1.47;100.00;99665.38;5060733;28;20626;-76
2022/01/14 10:41:50;;;;;;;96.63;19.27;;;;;;;1.25;100.00;99657.25;5067615;28;20709;-77
2022/01/14 10:44:24;;;;;;;82.33;17.40;;;;;;;1.55;100.00;99654.03;5067256;28;20692;-76
2022/01/14 10:46:51;;;;;;;62.57;16.73;;;;;;;1.96;100.00;99663.59;5067894;28;20610;-76
2022/01/14 10:49:34;;;;;;;81.60;18.23;;;;;;;2.28;100.00;99652.22;5068981;28;20590;-76
2022/01/14 10:52:20;;;;;;;97.67;19.27;;;;;;;2.50;100.00;99650.69;5068894;28;21027;-76
2022/01/14 10:54:48;;;;;;;73.87;16.87;;;;;;;2.50;100.00;99654.16;5067193;28;20699;-77
2022/01/14 10:57:18;;;;;;;64.37;16.07;;;;;;;2.76;100.00;99653.88;5067930;28;20601;-76
2022/01/14 10:59:46;;;;;;;73.33;15.37;;;;;;;2.81;100.00;99643.66;5067771;28;20585;-76
2022/01/14 11:02:31;;;;;;;98.53;18.57;;;;;;;2.95;100.00;99642.09;5060564;28;20598;-76
2022/01/14 11:05:11;;;;;;;55.33;15.37;;;;;;;2.71;100.00;99638.56;5068499;28;20637;-76
2022/01/14 11:07:39;;;;;;;73.53;16.27;;;;;;;2.72;100.00;99637.56;5068512;28;20602;-76
2022/01/14 11:10:22;;;;;;;57.63;14.97;;;;;;;3.05;100.00;99643.53;5068983;28;20610;-76
2022/01/14 11:12:49;;;;;;;112.20;18.77;;;;;;;2.62;100.00;99644.03;5067748;28;20598;-76
2022/01/14 11:15:16;;;;;;;134.47;19.83;;;;;;;2.90;100.00;99640.00;5066857;28;20602;-76
2022/01/14 11:17:46;;;;;;;137.83;18.90;;;;;;;2.84;100.00;99639.84;5067315;28;20684;-74
2022/01/14 11:20:20;;;;;;;98.57;18.53;;;;;;;3.05;100.00;99638.25;5055294;28;20670;-75
2022/01/14 11:25:31;;;;;;;79.50;19.87;;;;;;;2.34;100.00;99629.63;5067066;28;20661;-75
2022/01/14 11:28:00;;;;;;;79.20;18.20;;;;;;;1.67;100.00;99636.94;5066795;28;20594;-76
2022/01/14 11:30:39;;;;;;;85.50;17.13;;;;;;;2.35;100.00;99628.63;5068976;28;20652;-77
2022/01/14 11:33:08;;;;;;;70.90;15.77;;;;;;;1.89;100.00;99624.94;5069077;28;20614;-76
2022/01/14 11:35:38;;;;;;;91.47;16.90;;;;;;;1.81;100.00;99623.09;5069983;28;20594;-77
2022/01/14 11:38:44;;;;;;;81.57;16.43;;;;;;;2.06;100.00;99619.47;5072834;28;20602;-77
2022/01/14 11:41:13;;;;;;;84.13;18.37;;;;;;;2.42;100.00;99603.22;5055878;28;20598;-77
2022/01/14 11:43:53;;;;;;;107.70;18.50;;;;;;;2.64;100.00;99611.22;5074125;28;20600;-77